createdAt,value
2023-10-30T00:00:30.357Z,9.20
2023-10-30T00:05:22.563Z,12.82
2023-10-30T00:10:14.240Z,8.13
2023-10-30T00:15:06.552Z,7.90
2023-10-30T00:19:58.247Z,4.97
2023-10-30T00:24:49.881Z,6.95
2023-10-30T00:29:42.093Z,7.05
2023-10-30T00:34:34.388Z,4.68
2023-10-30T00:39:26.133Z,5.57
2023-10-30T00:44:17.799Z,4.18
2023-10-30T00:49:09.490Z,6.75
2023-10-30T00:54:01.200Z,9.02
2023-10-30T00:58:52.826Z,6.97
2023-10-30T01:03:45.553Z,6.13
2023-10-30T01:08:37.290Z,4.05
2023-10-30T01:13:29.016Z,7.18
2023-10-30T01:18:21.259Z,5.38
2023-10-30T01:23:13.013Z,4.93
2023-10-30T01:28:04.872Z,8.63
2023-10-30T01:32:56.712Z,7.07
2023-10-30T01:37:48.489Z,8.70
2023-10-30T01:42:40.204Z,5.18
2023-10-30T01:47:31.968Z,4.20
2023-10-30T01:52:27.463Z,3.60
2023-10-30T01:57:21.693Z,8.98
2023-10-30T02:02:13.555Z,10.40
2023-10-30T02:07:05.432Z,8.52
2023-10-30T02:11:59.112Z,4.38
2023-10-30T02:16:51.504Z,5.97
2023-10-30T02:21:43.348Z,8.18
2023-10-30T02:26:35.791Z,7.65
2023-10-30T02:31:27.577Z,7.15
2023-10-30T02:36:19.310Z,7.47
2023-10-30T02:41:11.037Z,9.88
2023-10-30T02:46:02.798Z,8.90
2023-10-30T02:50:54.497Z,5.50
2023-10-30T02:55:46.287Z,3.95
2023-10-30T03:00:38.002Z,5.00
2023-10-30T03:05:29.667Z,6.25
2023-10-30T03:10:22.927Z,5.38
2023-10-30T03:15:15.044Z,5.43
2023-10-30T03:20:09.383Z,4.40
2023-10-30T03:25:01.206Z,9.40
2023-10-30T03:29:52.854Z,4.70
2023-10-30T03:34:44.524Z,3.08
2023-10-30T03:39:36.287Z,5.43
2023-10-30T03:44:29.048Z,14.13
2023-10-30T03:49:20.720Z,6.47
2023-10-30T03:54:12.405Z,6.95
2023-10-30T03:59:04.101Z,4.97
2023-10-30T04:03:56.051Z,7.03
2023-10-30T04:08:47.801Z,4.05
2023-10-30T04:13:39.663Z,5.80
2023-10-30T04:18:32.553Z,6.75
2023-10-30T04:23:24.205Z,4.30
2023-10-30T04:28:15.888Z,10.27
2023-10-30T04:33:07.569Z,2.17
2023-10-30T04:37:59.214Z,3.15
2023-10-30T04:42:51.761Z,3.95
2023-10-30T04:47:44.902Z,6.40
2023-10-30T04:52:36.653Z,6.72
2023-10-30T04:57:28.353Z,10.95
2023-10-30T05:02:20.120Z,4.07
2023-10-30T05:07:11.873Z,5.15
2023-10-30T05:12:03.729Z,6.72
2023-10-30T05:16:55.471Z,5.05
2023-10-30T05:21:47.249Z,4.78
2023-10-30T05:26:38.962Z,3.63
2023-10-30T05:31:31.169Z,3.20
2023-10-30T05:36:22.931Z,5.75
2023-10-30T05:41:14.783Z,7.43
2023-10-30T05:46:06.460Z,8.07
2023-10-30T05:50:58.241Z,5.55
2023-10-30T05:55:50.330Z,3.75
2023-10-30T06:00:42.180Z,3.40
2023-10-30T06:05:33.990Z,7.47
2023-10-30T06:10:25.705Z,12.07
2023-10-30T06:15:17.676Z,4.18
2023-10-30T06:20:10.537Z,9.38
2023-10-30T06:25:02.506Z,6.93
2023-10-30T06:29:54.761Z,4.85
2023-10-30T06:34:46.647Z,4.88
2023-10-30T06:39:38.386Z,4.55
2023-10-30T06:44:30.138Z,3.85
2023-10-30T06:49:21.817Z,4.68
2023-10-30T06:54:14.302Z,4.57
2023-10-30T06:59:08.643Z,2.63
2023-10-30T07:04:02.348Z,4.57
2023-10-30T07:08:54.182Z,7.95
2023-10-30T07:13:45.824Z,5.57
2023-10-30T07:18:37.477Z,4.70
2023-10-30T07:23:29.157Z,9.20
2023-10-30T07:28:20.790Z,4.70
2023-10-30T07:33:12.502Z,4.35
2023-10-30T07:38:05.050Z,1.95
2023-10-30T07:42:56.801Z,5.63
2023-10-30T07:47:48.602Z,4.90
2023-10-30T07:52:43.212Z,3.72
2023-10-30T07:57:35.689Z,3.47
2023-10-30T08:02:27.422Z,3.10
2023-10-30T08:07:19.303Z,6.70
2023-10-30T08:12:10.976Z,3.40
2023-10-30T08:17:03.591Z,3.58
2023-10-30T08:21:55.324Z,3.63
2023-10-30T08:26:46.981Z,10.75
2023-10-30T08:31:40.053Z,4.65
2023-10-30T08:36:32.003Z,5.13
2023-10-30T08:41:25.135Z,4.93
2023-10-30T08:46:18.712Z,7.68
2023-10-30T08:51:10.355Z,5.38
2023-10-30T08:56:03.499Z,3.05
2023-10-30T09:00:55.243Z,1.83
2023-10-30T09:05:47.691Z,4.80
2023-10-30T09:10:39.500Z,3.45
2023-10-30T09:15:31.235Z,1.77
2023-10-30T09:20:24.920Z,1.55
2023-10-30T09:25:16.721Z,6.88
2023-10-30T09:30:08.676Z,3.92
2023-10-30T09:35:01.115Z,5.22
2023-10-30T09:39:53.023Z,4.55
2023-10-30T09:44:46.069Z,4.72
2023-10-30T09:49:39.028Z,4.80
2023-10-30T09:54:31.470Z,4.85
2023-10-30T09:59:23.306Z,5.40
2023-10-30T10:04:17.160Z,5.20
2023-10-30T10:09:09.046Z,2.78
2023-10-30T10:14:05.772Z,2.25
2023-10-30T10:18:58.816Z,5.50
2023-10-30T10:23:50.796Z,4.53
2023-10-30T10:28:49.815Z,8.13
2023-10-30T10:33:44.153Z,5.15
2023-10-30T10:38:36.922Z,3.67
2023-10-30T10:43:30.452Z,3.33
2023-10-30T10:48:24.105Z,3.80
2023-10-30T10:53:19.179Z,4.53
2023-10-30T10:58:14.219Z,3.95
2023-10-30T11:03:07.563Z,3.15
2023-10-30T11:08:11.789Z,1.90
2023-10-30T11:13:11.887Z,5.68
2023-10-30T11:18:29.997Z,7.65
2023-10-30T11:24:03.090Z,3.83
2023-10-30T11:28:55.295Z,3.83
2023-10-30T11:33:46.954Z,1.50
2023-10-30T11:39:13.688Z,4.82
2023-10-30T11:44:12.493Z,4.70
2023-10-30T11:49:04.382Z,6.43
2023-10-30T11:53:56.393Z,3.38
2023-10-30T11:58:49.290Z,3.55
2023-10-30T12:03:44.380Z,3.03
2023-10-30T12:08:36.192Z,2.30
2023-10-30T12:13:28.090Z,2.15
2023-10-30T12:18:19.813Z,4.18
2023-10-30T12:23:11.516Z,3.45
2023-10-30T12:28:05.020Z,1.70
2023-10-30T12:32:58.604Z,2.38
2023-10-30T12:37:50.461Z,2.53
2023-10-30T12:42:47.496Z,2.22
2023-10-30T12:47:44.149Z,4.10
2023-10-30T12:52:36.261Z,4.70
2023-10-30T12:57:28.436Z,1.70
2023-10-30T13:02:21.169Z,1.75
2023-10-30T13:07:13.355Z,4.88
2023-10-30T13:12:06.383Z,1.13
2023-10-30T13:16:58.232Z,5.03
2023-10-30T13:21:50.580Z,2.35
2023-10-30T13:26:42.518Z,4.90
2023-10-30T13:31:34.531Z,3.65
2023-10-30T13:36:26.233Z,1.25
2023-10-30T13:41:18.047Z,2.53
2023-10-30T13:46:10.193Z,2.30
2023-10-30T13:51:02.025Z,2.50
2023-10-30T13:55:54.156Z,1.88
2023-10-30T14:00:45.921Z,1.65
2023-10-30T14:05:37.712Z,1.13
2023-10-30T14:10:29.364Z,4.13
2023-10-30T14:15:21.043Z,2.20
2023-10-30T14:20:14.528Z,2.35
2023-10-30T14:25:08.277Z,3.42
2023-10-30T14:30:00.049Z,2.15
2023-10-30T14:34:52.849Z,1.20
2023-10-30T14:39:44.699Z,1.20
2023-10-30T14:44:36.326Z,2.15
2023-10-30T14:49:27.998Z,2.13
2023-10-30T14:54:19.694Z,2.58
2023-10-30T14:59:11.368Z,0.43
2023-10-30T15:04:03.098Z,1.27
2023-10-30T15:08:55.312Z,0.85
2023-10-30T15:13:47.017Z,0.55
2023-10-30T15:18:38.761Z,0.75
2023-10-30T15:23:32.244Z,0.73
2023-10-30T15:28:24.189Z,0.17
2023-10-30T15:33:16.465Z,1.60
2023-10-30T15:38:08.090Z,0.10
2023-10-30T15:42:59.849Z,0.70
2023-10-30T15:47:51.576Z,1.40
2023-10-30T15:57:40.446Z,0.40
2023-10-30T16:02:32.869Z,0.30
2023-10-30T16:07:24.641Z,0.50
2023-10-30T16:12:16.427Z,1.73
2023-10-30T16:22:03.469Z,3.33
2023-10-30T16:26:55.915Z,1.63
2023-10-30T16:31:48.565Z,10.18
2023-10-30T16:36:40.439Z,1.25
2023-10-30T16:41:32.097Z,1.80
2023-10-30T16:46:23.800Z,1.33
2023-10-30T16:51:15.461Z,1.83
2023-10-30T16:56:07.671Z,2.28
2023-10-30T17:00:59.398Z,1.65
2023-10-30T17:05:51.342Z,2.22
2023-10-30T17:10:43.171Z,3.20
2023-10-30T17:15:35.244Z,3.67
2023-10-30T17:20:26.925Z,3.15
2023-10-30T17:25:18.944Z,1.50
2023-10-30T17:30:11.272Z,4.00
2023-10-30T17:35:03.313Z,1.80
2023-10-30T17:39:55.514Z,2.75
2023-10-30T17:44:49.313Z,2.00
2023-10-30T17:49:41.161Z,1.35
2023-10-30T17:54:36.159Z,1.30
2023-10-30T17:59:28.080Z,2.88
2023-10-30T18:04:20.682Z,1.05
2023-10-30T18:09:12.347Z,3.28
2023-10-30T18:14:04.121Z,3.70
2023-10-30T18:18:55.932Z,5.07
2023-10-30T18:23:47.848Z,7.90
2023-10-30T18:28:39.689Z,3.63
2023-10-30T18:33:31.819Z,4.13
2023-10-30T18:38:23.844Z,1.17
2023-10-30T18:43:16.642Z,1.75
2023-10-30T18:48:09.998Z,5.50
2023-10-30T18:53:02.529Z,1.35
2023-10-30T18:57:54.241Z,10.40
2023-10-30T19:02:49.000Z,12.98
2023-10-30T19:07:40.861Z,8.63
2023-10-30T19:12:34.034Z,2.10
2023-10-30T19:17:26.201Z,2.30
2023-10-30T19:22:17.949Z,1.90
2023-10-30T19:27:09.918Z,2.70
2023-10-30T19:32:01.806Z,2.00
2023-10-30T19:36:53.648Z,1.50
2023-10-30T19:41:46.344Z,2.13
2023-10-30T19:46:41.182Z,3.53
2023-10-30T19:51:52.515Z,2.65
2023-10-30T19:56:48.148Z,2.10
2023-10-30T20:01:40.825Z,2.85
2023-10-30T20:06:33.231Z,2.08
2023-10-30T20:11:25.504Z,1.38
2023-10-30T20:16:17.179Z,2.45
2023-10-30T20:21:08.954Z,2.05
2023-10-30T20:26:01.012Z,1.27
2023-10-30T20:30:54.442Z,1.58
2023-10-30T20:35:47.205Z,1.48
2023-10-30T20:40:40.534Z,1.00
2023-10-30T20:45:32.785Z,2.65
2023-10-30T20:50:29.676Z,2.42
2023-10-30T20:55:21.672Z,1.73
2023-10-30T21:00:14.116Z,2.85
2023-10-30T21:05:06.307Z,3.00
2023-10-30T21:10:00.528Z,4.63
2023-10-30T21:14:53.935Z,5.03
2023-10-30T21:19:45.763Z,6.38
2023-10-30T21:24:37.432Z,6.38
2023-10-30T21:29:29.571Z,4.68
2023-10-30T21:34:23.994Z,4.95
2023-10-30T21:39:17.272Z,4.63
2023-10-30T21:44:09.921Z,4.18
2023-10-30T21:49:01.655Z,5.10
2023-10-30T21:53:54.747Z,6.25
2023-10-30T21:58:46.517Z,4.70
2023-10-30T22:03:38.848Z,3.72
2023-10-30T22:08:31.931Z,3.97
2023-10-30T22:13:25.204Z,6.88
2023-10-30T22:18:16.915Z,5.82
2023-10-30T22:23:08.621Z,5.10
2023-10-30T22:28:00.332Z,4.90
2023-10-30T22:32:52.408Z,3.90
2023-10-30T22:37:44.209Z,3.13
2023-10-30T22:42:35.935Z,4.20
2023-10-30T22:47:27.665Z,3.97
2023-10-30T22:52:19.507Z,5.80
2023-10-30T22:57:11.170Z,4.82
2023-10-30T23:02:04.340Z,5.05
2023-10-30T23:06:56.092Z,5.95
2023-10-30T23:11:47.814Z,7.68
2023-10-30T23:16:39.712Z,8.27
2023-10-30T23:21:31.443Z,8.45
2023-10-30T23:26:23.216Z,10.57
2023-10-30T23:31:14.948Z,11.65
2023-10-30T23:36:09.984Z,14.10
2023-10-30T23:41:01.989Z,16.10
2023-10-30T23:45:54.657Z,13.02
2023-10-30T23:50:46.316Z,15.80
2023-10-30T23:55:38.410Z,15.88
